createdAt,value
2023-01-21T00:02:27.419Z,-1.47
2023-01-21T00:07:28.207Z,-1.56
2023-01-21T00:12:29.397Z,-1.60
2023-01-21T00:17:34.531Z,-1.59
2023-01-21T00:22:35.458Z,-1.56
2023-01-21T00:27:36.803Z,-1.55
2023-01-21T00:32:37.587Z,-1.59
2023-01-21T00:37:38.389Z,-1.64
2023-01-21T00:42:39.141Z,-1.62
2023-01-21T00:47:39.902Z,-1.61
2023-01-21T00:52:40.722Z,-1.60
2023-01-21T00:57:41.561Z,-1.59
2023-01-21T01:02:42.473Z,-1.64
2023-01-21T01:07:45.268Z,-1.64
2023-01-21T01:12:45.994Z,-1.55
2023-01-21T01:17:46.752Z,-1.52
2023-01-21T01:22:47.663Z,-1.53
2023-01-21T01:27:48.695Z,-1.60
2023-01-21T01:32:49.444Z,-1.53
2023-01-21T01:37:50.318Z,-1.60
2023-01-21T01:42:51.045Z,-1.63
2023-01-21T01:47:59.630Z,-1.68
2023-01-21T01:53:01.315Z,-1.68
2023-01-21T01:58:05.950Z,-1.69
2023-01-21T02:03:25.491Z,-1.76
2023-01-21T02:08:27.421Z,-1.76
2023-01-21T02:13:30.708Z,-1.72
2023-01-21T02:18:46.146Z,-1.69
2023-01-21T02:24:27.085Z,-1.78
2023-01-21T02:29:57.308Z,-1.75
2023-01-21T02:35:08.306Z,-1.75
2023-01-21T02:40:52.531Z,-1.78
2023-01-21T02:46:02.535Z,-1.85
2023-01-21T02:51:04.423Z,-1.83
2023-01-21T02:56:08.845Z,-1.82
2023-01-21T03:01:35.690Z,-1.76
2023-01-21T03:09:43.971Z,-1.79
2023-01-21T03:17:36.167Z,-1.73
2023-01-21T03:22:38.775Z,-1.67
2023-01-21T03:27:43.847Z,-1.68
2023-01-21T03:32:49.323Z,-1.75
2023-01-21T03:44:38.630Z,-1.68
2023-01-21T03:50:45.262Z,-1.72
2023-01-21T03:55:49.228Z,-1.72
2023-01-21T04:00:50.164Z,-1.70
2023-01-21T04:05:50.993Z,-1.72
2023-01-21T04:10:51.730Z,-1.76
2023-01-21T04:15:52.467Z,-1.83
2023-01-21T04:20:53.237Z,-1.88
2023-01-21T04:25:54.012Z,-1.93
2023-01-21T04:30:54.901Z,-2.01
2023-01-21T04:36:00.172Z,-1.99
2023-01-21T04:41:01.242Z,-1.99
2023-01-21T04:46:02.089Z,-1.98
2023-01-21T04:51:03.038Z,-1.95
2023-01-21T04:56:04.313Z,-2.11
2023-01-21T05:01:05.468Z,-2.22
2023-01-21T05:06:06.700Z,-2.40
2023-01-21T05:11:08.798Z,-2.42
2023-01-21T05:16:10.078Z,-2.58
2023-01-21T05:21:11.186Z,-2.54
2023-01-21T05:26:11.915Z,-2.63
2023-01-21T05:31:13.284Z,-2.55
2023-01-21T05:36:14.088Z,-2.44
2023-01-21T05:41:14.953Z,-2.47
2023-01-21T05:46:15.708Z,-2.58
2023-01-21T05:51:16.701Z,-2.65
2023-01-21T05:56:17.506Z,-2.57
2023-01-21T06:01:18.343Z,-2.63
2023-01-21T06:06:21.194Z,-2.85
2023-01-21T06:11:22.386Z,-2.91
2023-01-21T06:16:23.216Z,-2.91
2023-01-21T06:21:24.103Z,-2.91
2023-01-21T06:26:27.064Z,-2.92
2023-01-21T06:31:28.427Z,-2.97
2023-01-21T06:36:29.217Z,-2.93
2023-01-21T06:41:30.155Z,-3.02
2023-01-21T06:46:31.313Z,-2.94
2023-01-21T06:51:32.112Z,-3.12
2023-01-21T06:56:32.850Z,-3.35
2023-01-21T07:01:34.008Z,-3.46
2023-01-21T07:06:35.025Z,-3.51
2023-01-21T07:11:35.873Z,-3.59
2023-01-21T07:16:36.998Z,-3.75
2023-01-21T07:21:40.544Z,-3.91
2023-01-21T07:26:42.438Z,-4.07
2023-01-21T07:31:43.454Z,-4.13
2023-01-21T07:36:44.264Z,-4.21
2023-01-21T07:41:45.666Z,-4.17
2023-01-21T07:46:46.458Z,-4.16
2023-01-21T07:51:47.627Z,-4.07
2023-01-21T07:56:48.370Z,-3.95
2023-01-21T08:01:49.445Z,-3.82
2023-01-21T08:06:56.023Z,-3.73
2023-01-21T08:11:56.887Z,-3.45
2023-01-21T08:16:58.020Z,-3.45
2023-01-21T08:21:58.767Z,-3.39
2023-01-21T08:27:00.251Z,-3.25
2023-01-21T08:32:01.299Z,-3.22
2023-01-21T08:37:02.073Z,-3.26
2023-01-21T08:42:02.926Z,-3.24
2023-01-21T08:47:03.749Z,-2.84
2023-01-21T08:52:04.472Z,-2.44
2023-01-21T08:57:05.234Z,-2.50
2023-01-21T09:02:07.736Z,-2.45
2023-01-21T09:07:08.600Z,-2.12
2023-01-21T09:12:09.415Z,-2.02
2023-01-21T09:17:10.256Z,-1.99
2023-01-21T09:22:11.357Z,-2.03
2023-01-21T09:27:12.161Z,-1.98
2023-01-21T09:32:13.081Z,-2.08
2023-01-21T09:37:13.859Z,-2.19
2023-01-21T09:42:21.179Z,-1.60
2023-01-21T09:47:36.784Z,-1.05
2023-01-21T09:52:43.749Z,-0.96
2023-01-21T09:58:22.639Z,-1.24
2023-01-21T10:03:32.248Z,-0.78
2023-01-21T10:09:01.108Z,-1.01
2023-01-21T10:17:43.129Z,-0.65
2023-01-21T10:22:52.365Z,-0.55
2023-01-21T10:27:56.876Z,-0.26
2023-01-21T10:32:58.334Z,-0.36
2023-01-21T10:38:13.536Z,-0.48
2023-01-21T10:43:29.653Z,-0.54
2023-01-21T10:48:44.323Z,-0.68
2023-01-21T10:53:59.852Z,-0.56
2023-01-21T10:59:16.950Z,-0.06
2023-01-21T11:04:20.884Z,-0.16
2023-01-21T11:09:24.872Z,-0.20
2023-01-21T11:14:26.628Z,-0.34
2023-01-21T11:19:30.223Z,-0.18
2023-01-21T11:24:42.778Z,0.09
2023-01-21T11:29:43.732Z,-0.10
2023-01-21T11:34:50.594Z,-0.47
2023-01-21T11:40:21.168Z,-0.21
2023-01-21T11:45:28.863Z,-0.04
2023-01-21T11:50:37.060Z,-0.22
2023-01-21T11:55:40.829Z,-0.02
2023-01-21T12:00:45.563Z,-0.32
2023-01-21T12:05:52.227Z,-0.63
2023-01-21T12:10:55.736Z,-0.50
2023-01-21T12:16:53.983Z,-0.80
2023-01-21T12:26:33.518Z,-1.16
2023-01-21T12:31:44.574Z,-1.67
2023-01-21T12:36:53.394Z,-1.15
2023-01-21T12:42:12.132Z,-1.18
2023-01-21T12:47:22.674Z,-1.33
2023-01-21T12:52:47.634Z,-1.39
2023-01-21T12:58:04.466Z,-1.33
2023-01-21T13:03:27.105Z,-1.67
2023-01-21T13:08:54.544Z,-1.57
2023-01-21T13:14:24.482Z,-1.58
2023-01-21T13:19:25.544Z,-1.70
2023-01-21T13:25:50.470Z,-1.68
2023-01-21T13:32:30.827Z,-1.91
2023-01-21T13:37:59.878Z,-1.79
2023-01-21T13:43:29.247Z,-1.78
2023-01-21T13:50:16.734Z,-1.73
2023-01-21T13:55:37.110Z,-1.68
2023-01-21T14:00:52.267Z,-1.88
2023-01-21T14:09:09.046Z,-1.82
2023-01-21T14:15:33.688Z,-1.75
2023-01-21T14:20:52.762Z,-1.67
2023-01-21T14:28:04.385Z,-1.70
2023-01-21T14:33:26.959Z,-1.66
2023-01-21T14:40:34.948Z,-1.79
2023-01-21T14:45:56.465Z,-1.65
2023-01-21T14:51:12.379Z,-1.87
2023-01-21T14:56:25.392Z,-1.86
2023-01-21T15:01:49.208Z,-1.76
2023-01-21T15:06:53.666Z,-1.77
2023-01-21T15:12:14.852Z,-1.71
2023-01-21T15:18:29.083Z,-1.75
2023-01-21T15:23:39.185Z,-1.44
2023-01-21T15:28:57.328Z,-1.76
2023-01-21T15:34:01.177Z,-1.73
2023-01-21T15:39:12.022Z,-1.92
2023-01-21T15:44:29.676Z,-1.95
2023-01-21T15:49:49.337Z,-1.86
2023-01-21T16:01:39.422Z,-1.92
2023-01-21T16:07:01.207Z,-1.67
2023-01-21T16:12:35.949Z,-1.81
2023-01-21T16:18:00.781Z,-1.90
2023-01-21T16:23:06.594Z,-1.93
2023-01-21T16:28:07.321Z,-1.89
2023-01-21T16:33:13.326Z,-1.99
2023-01-21T16:38:16.735Z,-1.88
2023-01-21T16:43:27.268Z,-1.96
2023-01-21T16:48:31.052Z,-2.01
2023-01-21T16:53:31.917Z,-1.95
2023-01-21T16:58:34.007Z,-1.82
2023-01-21T17:03:35.600Z,-1.88
2023-01-21T17:08:37.673Z,-1.96
2023-01-21T17:13:42.315Z,-1.78
2023-01-21T17:18:51.966Z,-1.80
2023-01-21T17:23:56.315Z,-1.78
2023-01-21T17:29:07.495Z,-1.75
2023-01-21T17:34:21.120Z,-1.76
2023-01-21T17:40:27.346Z,-1.82
2023-01-21T17:45:35.767Z,-1.45
2023-01-21T17:50:36.580Z,-1.57
2023-01-21T17:55:39.613Z,-1.65
2023-01-21T18:00:43.156Z,-1.60
2023-01-21T18:05:43.917Z,-1.61
2023-01-21T18:10:45.575Z,-1.67
2023-01-21T18:15:53.417Z,-1.77
2023-01-21T18:20:54.837Z,-1.92
2023-01-21T18:25:56.502Z,-2.01
2023-01-21T18:30:58.719Z,-2.04
2023-01-21T18:35:59.794Z,-2.21
2023-01-21T18:41:00.876Z,-2.26
2023-01-21T18:46:01.736Z,-2.23
2023-01-21T18:51:02.736Z,-2.24
2023-01-21T18:56:06.970Z,-2.20
2023-01-21T19:01:21.984Z,-2.10
2023-01-21T19:06:25.013Z,-2.19
2023-01-21T19:11:25.828Z,-2.14
2023-01-21T19:16:26.743Z,-2.22
2023-01-21T19:21:27.860Z,-2.21
2023-01-21T19:26:29.088Z,-2.17
2023-01-21T19:31:34.334Z,-2.00
2023-01-21T19:36:35.251Z,-1.95
2023-01-21T19:41:36.074Z,-2.13
2023-01-21T19:46:37.117Z,-2.11
2023-01-21T19:51:37.926Z,-2.22
2023-01-21T19:56:38.815Z,-2.32
2023-01-21T20:01:39.623Z,-2.27
2023-01-21T20:06:41.656Z,-2.22
2023-01-21T20:11:43.035Z,-2.20
2023-01-21T20:16:49.485Z,-2.17
2023-01-21T20:22:01.338Z,-2.24
2023-01-21T20:27:05.851Z,-2.18
2023-01-21T20:32:09.838Z,-2.12
2023-01-21T20:37:14.369Z,-2.18
2023-01-21T20:42:15.109Z,-2.20
2023-01-21T20:47:23.057Z,-2.50
2023-01-21T20:52:33.357Z,-2.40
2023-01-21T20:57:34.191Z,-2.49
2023-01-21T21:02:34.963Z,-2.40
2023-01-21T21:07:35.761Z,-2.42
2023-01-21T21:12:37.083Z,-2.42
2023-01-21T21:17:37.873Z,-2.41
2023-01-21T21:22:38.642Z,-2.18
2023-01-21T21:27:39.584Z,-2.23
2023-01-21T21:32:40.359Z,-2.31
2023-01-21T21:37:41.094Z,-2.30
2023-01-21T21:43:00.315Z,-2.18
2023-01-21T21:48:19.931Z,-2.20
2023-01-21T21:53:20.752Z,-2.21
2023-01-21T21:58:21.715Z,-2.24
2023-01-21T22:03:22.442Z,-2.14
2023-01-21T22:08:28.411Z,-2.24
2023-01-21T22:13:31.418Z,-2.36
2023-01-21T22:18:33.397Z,-2.31
2023-01-21T22:23:36.295Z,-2.35
2023-01-21T22:28:37.181Z,-2.40
2023-01-21T22:33:38.453Z,-2.34
2023-01-21T22:38:40.907Z,-2.03
2023-01-21T22:43:44.423Z,-2.14
2023-01-21T22:48:46.042Z,-2.19
2023-01-21T22:53:47.293Z,-2.20
2023-01-21T22:58:48.148Z,-2.31
2023-01-21T23:03:49.300Z,-2.26
2023-01-21T23:08:50.694Z,-2.30
2023-01-21T23:13:54.210Z,-2.26
2023-01-21T23:18:55.109Z,-2.36
2023-01-21T23:23:55.914Z,-2.41
2023-01-21T23:28:57.502Z,-2.39
2023-01-21T23:33:58.461Z,-2.37
2023-01-21T23:38:59.242Z,-2.38
2023-01-21T23:44:01.372Z,-2.46
2023-01-21T23:49:02.204Z,-2.41
2023-01-21T23:54:03.058Z,-2.38
2023-01-21T23:59:04.931Z,-2.37
